createdAt,value
2024-05-09T00:01:04.033Z,4.53
2024-05-09T00:03:10.810Z,4.00
2024-05-09T00:05:13.893Z,4.03
2024-05-09T00:07:18.431Z,3.87
2024-05-09T00:09:22.930Z,4.00
2024-05-09T00:11:27.482Z,4.40
2024-05-09T00:13:31.970Z,3.97
2024-05-09T00:15:37.113Z,3.63
2024-05-09T00:17:44.573Z,3.73
2024-05-09T00:19:49.479Z,3.60
2024-05-09T00:21:54.066Z,3.83
2024-05-09T00:23:58.937Z,4.40
2024-05-09T00:26:03.396Z,4.20
2024-05-09T00:28:08.677Z,4.00
2024-05-09T00:30:17.430Z,3.73
2024-05-09T00:32:26.052Z,4.00
2024-05-09T00:34:33.564Z,3.87
2024-05-09T00:36:39.567Z,4.20
2024-05-09T00:38:45.492Z,4.13
2024-05-09T00:40:50.081Z,4.30
2024-05-09T00:42:54.575Z,4.50
2024-05-09T00:44:59.263Z,4.07
2024-05-09T00:47:03.714Z,3.97
2024-05-09T00:49:08.416Z,4.00
2024-05-09T00:51:15.516Z,4.00
2024-05-09T00:53:21.135Z,3.90
2024-05-09T00:55:26.358Z,4.23
2024-05-09T00:57:30.971Z,3.60
2024-05-09T00:59:36.248Z,3.67
2024-05-09T01:01:40.939Z,3.60
2024-05-09T01:03:46.630Z,3.67
2024-05-09T01:05:52.767Z,3.80
2024-05-09T01:08:00.030Z,4.07
2024-05-09T01:10:01.900Z,4.17
2024-05-09T01:12:07.207Z,4.13
2024-05-09T01:14:11.698Z,4.27
2024-05-09T01:16:16.701Z,3.50
2024-05-09T01:18:21.523Z,4.00
2024-05-09T01:20:37.138Z,3.90
2024-05-09T01:22:47.461Z,12.03
2024-05-09T01:24:54.664Z,4.03
2024-05-09T01:26:59.109Z,3.90
2024-05-09T01:29:03.564Z,3.83
2024-05-09T01:31:08.284Z,4.57
2024-05-09T01:33:13.427Z,4.17
2024-05-09T01:35:23.191Z,3.90
2024-05-09T01:37:27.644Z,4.10
2024-05-09T01:39:32.315Z,4.60
2024-05-09T01:41:39.427Z,4.13
2024-05-09T01:43:43.958Z,4.33
2024-05-09T01:45:48.417Z,4.50
2024-05-09T01:47:53.152Z,4.20
2024-05-09T01:49:57.844Z,4.80
2024-05-09T01:52:02.372Z,4.27
2024-05-09T01:54:07.009Z,3.60
2024-05-09T01:56:12.665Z,4.83
2024-05-09T01:58:20.605Z,4.33
2024-05-09T02:00:36.655Z,3.93
2024-05-09T02:02:47.436Z,4.60
2024-05-09T02:04:52.475Z,4.37
2024-05-09T02:06:57.197Z,4.37
2024-05-09T02:09:01.741Z,3.80
2024-05-09T02:11:06.413Z,4.07
2024-05-09T02:13:10.822Z,4.27
2024-05-09T02:15:18.244Z,4.30
2024-05-09T02:17:23.040Z,3.93
2024-05-09T02:19:27.750Z,4.33
2024-05-09T02:21:34.179Z,4.40
2024-05-09T02:23:38.785Z,4.23
2024-05-09T02:25:44.155Z,4.77
2024-05-09T02:27:48.655Z,4.90
2024-05-09T02:29:53.081Z,5.10
2024-05-09T02:32:00.320Z,4.37
2024-05-09T02:34:02.444Z,4.30
2024-05-09T02:36:07.766Z,4.57
2024-05-09T02:38:10.026Z,4.37
2024-05-09T02:40:18.237Z,4.77
2024-05-09T02:42:23.582Z,4.50
2024-05-09T02:44:28.055Z,4.57
2024-05-09T02:46:29.902Z,4.47
2024-05-09T02:48:37.064Z,4.03
2024-05-09T02:50:40.570Z,4.90
2024-05-09T02:52:45.353Z,4.93
2024-05-09T02:54:47.163Z,4.20
2024-05-09T02:56:51.735Z,4.50
2024-05-09T02:58:53.616Z,4.40
2024-05-09T03:00:58.142Z,4.03
2024-05-09T03:03:00.210Z,4.23
2024-05-09T03:05:10.460Z,4.00
2024-05-09T03:07:12.322Z,4.07
2024-05-09T03:09:16.878Z,4.50
2024-05-09T03:11:22.516Z,4.27
2024-05-09T03:13:27.336Z,4.53
2024-05-09T03:15:32.256Z,4.87
2024-05-09T03:17:37.238Z,4.57
2024-05-09T03:19:39.192Z,4.50
2024-05-09T03:21:46.298Z,5.00
2024-05-09T03:23:48.243Z,4.23
2024-05-09T03:25:54.294Z,4.00
2024-05-09T03:27:56.586Z,4.70
2024-05-09T03:30:01.413Z,4.60
2024-05-09T03:32:03.655Z,4.57
2024-05-09T03:34:08.158Z,4.57
2024-05-09T03:36:11.399Z,4.20
2024-05-09T03:38:18.917Z,5.17
2024-05-09T03:40:24.007Z,4.80
2024-05-09T03:42:31.409Z,4.10
2024-05-09T03:44:33.314Z,4.43
2024-05-09T03:46:40.408Z,4.87
2024-05-09T03:48:42.363Z,4.43
2024-05-09T03:50:47.135Z,4.40
2024-05-09T03:52:49.303Z,5.23
2024-05-09T03:54:56.753Z,4.50
2024-05-09T03:56:58.624Z,4.40
2024-05-09T03:59:03.163Z,4.47
2024-05-09T04:01:05.308Z,4.47
2024-05-09T04:03:12.424Z,4.97
2024-05-09T04:05:15.287Z,4.57
2024-05-09T04:07:19.866Z,4.23
2024-05-09T04:09:21.785Z,5.07
2024-05-09T04:11:29.268Z,4.60
2024-05-09T04:13:31.239Z,4.80
2024-05-09T04:15:36.373Z,5.40
2024-05-09T04:17:39.423Z,4.77
2024-05-09T04:19:44.164Z,5.20
2024-05-09T04:21:46.108Z,4.40
2024-05-09T04:23:50.606Z,5.17
2024-05-09T04:25:52.601Z,5.00
2024-05-09T04:27:59.728Z,4.53
2024-05-09T04:30:01.900Z,4.63
2024-05-09T04:32:09.028Z,4.90
2024-05-09T04:34:11.175Z,4.60
2024-05-09T04:36:18.513Z,4.93
2024-05-09T04:38:21.058Z,4.70
2024-05-09T04:40:32.961Z,5.50
2024-05-09T04:42:40.645Z,4.63
2024-05-09T04:44:48.513Z,5.00
2024-05-09T04:46:50.435Z,5.57
2024-05-09T04:48:55.738Z,5.00
2024-05-09T04:50:58.522Z,5.30
2024-05-09T04:53:03.595Z,4.43
2024-05-09T04:55:06.428Z,4.40
2024-05-09T04:57:08.544Z,4.40
2024-05-09T04:59:13.137Z,4.03
2024-05-09T05:01:17.981Z,4.17
2024-05-09T05:03:23.143Z,4.63
2024-05-09T05:05:25.288Z,3.80
2024-05-09T05:07:29.772Z,4.43
2024-05-09T05:09:31.962Z,4.30
2024-05-09T05:11:36.888Z,3.90
2024-05-09T05:13:41.333Z,4.10
2024-05-09T05:15:43.882Z,3.50
2024-05-09T05:17:51.409Z,4.20
2024-05-09T05:19:54.229Z,4.17
2024-05-09T05:21:58.850Z,4.03
2024-05-09T05:24:03.714Z,4.03
2024-05-09T05:26:08.285Z,4.30
2024-05-09T05:28:10.432Z,4.10
2024-05-09T05:30:21.255Z,4.27
2024-05-09T05:32:27.390Z,4.20
2024-05-09T05:34:35.201Z,4.23
2024-05-09T05:36:38.468Z,4.00
2024-05-09T05:38:45.342Z,3.50
2024-05-09T05:40:49.890Z,3.70
2024-05-09T05:42:54.844Z,3.97
2024-05-09T05:44:56.872Z,3.80
2024-05-09T05:47:02.018Z,3.47
2024-05-09T05:49:04.615Z,3.80
2024-05-09T05:51:14.300Z,4.07
2024-05-09T05:53:16.604Z,4.10
2024-05-09T05:55:22.509Z,4.30
2024-05-09T05:57:24.569Z,4.30
2024-05-09T05:59:30.943Z,4.13
2024-05-09T06:01:32.933Z,4.07
2024-05-09T06:03:37.818Z,4.40
2024-05-09T06:05:40.949Z,3.87
2024-05-09T06:07:48.455Z,4.00
2024-05-09T06:09:50.608Z,3.93
2024-05-09T06:11:55.537Z,4.27
2024-05-09T06:13:57.921Z,4.43
2024-05-09T06:16:04.887Z,4.30
2024-05-09T06:18:11.141Z,4.43
2024-05-09T06:20:23.870Z,4.17
2024-05-09T06:22:33.605Z,3.87
2024-05-09T06:24:41.175Z,4.50
2024-05-09T06:26:46.394Z,4.30
2024-05-09T06:28:52.150Z,4.27
2024-05-09T06:30:54.326Z,4.40
2024-05-09T06:32:58.978Z,4.00
2024-05-09T06:35:00.945Z,3.97
2024-05-09T06:37:06.214Z,4.10
2024-05-09T06:39:18.829Z,4.00
2024-05-09T06:41:27.904Z,4.33
2024-05-09T06:43:30.001Z,4.10
2024-05-09T06:45:35.588Z,3.83
2024-05-09T06:47:37.660Z,4.37
2024-05-09T06:49:43.609Z,3.70
2024-05-09T06:51:47.038Z,4.20
2024-05-09T06:53:54.216Z,4.47
2024-05-09T06:55:56.499Z,4.10
2024-05-09T06:58:05.081Z,4.17
2024-05-09T07:00:15.478Z,3.70
2024-05-09T07:02:24.535Z,5.07
2024-05-09T07:04:26.737Z,3.90
2024-05-09T07:06:31.729Z,4.07
2024-05-09T07:08:34.085Z,3.53
2024-05-09T07:10:39.864Z,3.50
2024-05-09T07:12:41.878Z,3.90
2024-05-09T07:14:49.106Z,3.57
2024-05-09T07:16:51.537Z,3.60
2024-05-09T07:18:57.791Z,3.50
2024-05-09T07:21:01.048Z,3.10
2024-05-09T07:23:09.294Z,3.70
2024-05-09T07:25:11.195Z,3.47
2024-05-09T07:27:16.411Z,3.63
2024-05-09T07:29:18.564Z,3.87
2024-05-09T07:31:28.282Z,3.20
2024-05-09T07:33:31.862Z,3.53
2024-05-09T07:35:36.796Z,2.83
2024-05-09T07:37:40.973Z,3.13
2024-05-09T07:39:46.058Z,3.40
2024-05-09T07:41:48.025Z,3.27
2024-05-09T07:43:53.046Z,3.33
2024-05-09T07:53:33.921Z,3.37
2024-05-09T07:55:01.918Z,3.77
2024-05-09T07:57:07.486Z,2.83
2024-05-09T07:59:09.413Z,2.90
2024-05-09T08:01:14.316Z,3.43
2024-05-09T08:03:21.579Z,3.47
2024-05-09T08:05:26.416Z,3.87
2024-05-09T08:07:31.815Z,3.23
2024-05-09T08:09:38.679Z,2.80
2024-05-09T08:11:40.678Z,3.33
2024-05-09T08:13:45.506Z,2.90
2024-05-09T08:15:47.376Z,2.67
2024-05-09T08:17:52.752Z,3.37
2024-05-09T08:19:58.836Z,3.50
2024-05-09T08:22:07.143Z,3.00
2024-05-09T08:24:10.501Z,2.83
2024-05-09T08:26:19.417Z,3.23
2024-05-09T08:28:21.520Z,2.50
2024-05-09T08:30:33.400Z,2.20
2024-05-09T08:32:42.901Z,3.00
2024-05-09T08:34:48.358Z,2.70
2024-05-09T08:36:57.552Z,3.40
2024-05-09T08:39:03.466Z,3.10
2024-05-09T08:41:06.582Z,2.60
2024-05-09T08:43:13.027Z,2.93
2024-05-09T08:45:17.599Z,3.00
2024-05-09T08:47:26.805Z,2.40
2024-05-09T08:49:29.715Z,3.30
2024-05-09T08:51:35.238Z,2.73
2024-05-09T08:53:44.720Z,2.70
2024-05-09T08:55:51.016Z,2.53
2024-05-09T08:57:53.569Z,2.50
2024-05-09T09:00:00.690Z,2.70
2024-05-09T09:02:03.865Z,2.50
2024-05-09T09:04:09.226Z,2.57
2024-05-09T09:06:14.630Z,2.40
2024-05-09T09:08:19.416Z,2.87
2024-05-09T09:10:29.951Z,2.60
2024-05-09T09:12:37.094Z,2.80
2024-05-09T09:14:39.170Z,3.00
2024-05-09T09:16:46.335Z,2.60
2024-05-09T09:18:52.483Z,3.00
2024-05-09T09:20:58.790Z,2.87
2024-05-09T09:23:00.681Z,2.47
2024-05-09T09:25:05.946Z,2.73
2024-05-09T09:27:14.824Z,2.40
2024-05-09T09:29:23.358Z,3.33
2024-05-09T09:31:27.387Z,2.70
2024-05-09T09:33:33.239Z,2.70
2024-05-09T09:35:36.841Z,2.80
2024-05-09T09:37:43.201Z,2.33
2024-05-09T09:39:49.123Z,3.03
2024-05-09T09:41:55.050Z,2.90
2024-05-09T09:44:01.144Z,2.57
2024-05-09T09:46:09.718Z,2.60
2024-05-09T09:48:15.329Z,2.60
2024-05-09T09:50:27.551Z,2.77
2024-05-09T09:52:37.648Z,2.40
2024-05-09T09:54:43.950Z,2.60
2024-05-09T09:56:51.234Z,2.40
2024-05-09T09:58:56.152Z,2.70
2024-05-09T10:01:00.999Z,2.60
2024-05-09T10:03:17.144Z,2.17
2024-05-09T10:05:24.205Z,2.60
2024-05-09T10:07:39.894Z,2.70
2024-05-09T10:09:43.703Z,2.20
2024-05-09T10:11:52.353Z,2.30
2024-05-09T10:13:57.350Z,2.80
2024-05-09T10:16:13.753Z,2.60
2024-05-09T10:18:16.844Z,3.17
2024-05-09T10:20:28.165Z,2.50
2024-05-09T10:22:34.631Z,2.50
2024-05-09T10:24:50.868Z,2.90
2024-05-09T10:26:54.134Z,2.60
2024-05-09T10:28:58.779Z,2.50
2024-05-09T10:31:16.361Z,2.73
2024-05-09T10:33:20.824Z,2.40
2024-05-09T10:35:26.855Z,2.53
2024-05-09T10:37:30.678Z,2.57
2024-05-09T10:39:38.322Z,2.67
2024-05-09T10:41:41.035Z,2.83
2024-05-09T10:43:45.958Z,2.60
2024-05-09T10:45:49.476Z,2.83
2024-05-09T10:48:00.895Z,2.80
2024-05-09T10:50:07.880Z,2.83
2024-05-09T10:52:17.692Z,2.67
2024-05-09T10:54:19.651Z,2.50
2024-05-09T10:56:24.664Z,2.60
2024-05-09T10:58:27.522Z,2.90
2024-05-09T11:00:36.387Z,2.60
2024-05-09T11:02:38.970Z,2.47
2024-05-09T11:04:50.201Z,2.50
2024-05-09T11:06:52.315Z,2.40
2024-05-09T11:08:57.551Z,2.97
2024-05-09T11:11:00.249Z,2.77
2024-05-09T11:13:05.209Z,2.07
2024-05-09T11:15:07.389Z,2.50
2024-05-09T11:17:13.997Z,2.97
2024-05-09T11:19:18.523Z,2.70
2024-05-09T11:21:28.780Z,2.30
2024-05-09T11:23:31.752Z,2.70
2024-05-09T11:25:37.990Z,2.83
2024-05-09T11:27:44.095Z,2.80
2024-05-09T11:29:49.133Z,2.37
2024-05-09T11:31:51.204Z,2.83
2024-05-09T11:33:57.048Z,2.93
2024-05-09T11:35:59.427Z,3.10
2024-05-09T11:38:04.650Z,2.43
2024-05-09T11:40:17.084Z,2.70
2024-05-09T11:42:26.800Z,2.40
2024-05-09T11:44:31.375Z,2.17
2024-05-09T11:46:33.809Z,2.50
2024-05-09T11:48:38.994Z,2.50
2024-05-09T11:50:41.138Z,2.63
2024-05-09T11:52:45.973Z,2.50
2024-05-09T11:54:50.793Z,2.50
2024-05-09T11:56:56.475Z,2.40
2024-05-09T11:58:59.076Z,2.57
2024-05-09T12:01:04.572Z,2.30
2024-05-09T12:03:06.882Z,2.53
2024-05-09T12:05:10.120Z,2.47
2024-05-09T12:07:15.351Z,2.70
2024-05-09T12:09:17.569Z,3.87
2024-05-09T12:11:24.942Z,2.40
2024-05-09T12:13:28.064Z,7.63
2024-05-09T12:15:36.588Z,4.77
2024-05-09T12:17:39.702Z,2.40
2024-05-09T12:19:46.144Z,2.67
2024-05-09T12:21:48.664Z,2.40
2024-05-09T12:23:54.908Z,2.20
2024-05-09T12:25:57.158Z,2.70
2024-05-09T12:28:06.273Z,2.50
2024-05-09T12:30:14.193Z,2.43
2024-05-09T12:32:22.083Z,2.90
2024-05-09T12:34:24.517Z,2.40
2024-05-09T12:36:29.894Z,2.20
2024-05-09T12:38:32.356Z,2.30
2024-05-09T12:40:39.102Z,2.23
2024-05-09T12:42:41.982Z,2.30
2024-05-09T12:44:49.563Z,2.07
2024-05-09T12:46:53.937Z,2.20
2024-05-09T12:49:01.398Z,2.60
2024-05-09T12:51:06.438Z,2.13
2024-05-09T12:53:11.799Z,2.93
2024-05-09T12:55:14.219Z,2.30
2024-05-09T12:57:18.807Z,1.93
2024-05-09T12:59:21.130Z,2.20
2024-05-09T13:01:32.291Z,2.10
2024-05-09T13:03:35.378Z,2.73
2024-05-09T13:05:41.665Z,2.07
2024-05-09T13:07:44.061Z,2.53
2024-05-09T13:09:46.340Z,2.37
2024-05-09T13:11:51.464Z,2.20
2024-05-09T13:13:53.527Z,2.00
2024-05-09T13:15:58.391Z,2.10
2024-05-09T13:18:06.496Z,1.93
2024-05-09T13:20:19.042Z,2.20
2024-05-09T13:22:28.818Z,2.33
2024-05-09T13:24:36.586Z,2.00
2024-05-09T13:26:42.044Z,2.30
2024-05-09T13:28:53.515Z,2.47
2024-05-09T13:30:59.477Z,2.73
2024-05-09T13:33:08.289Z,2.40
2024-05-09T13:35:10.781Z,2.50
2024-05-09T13:37:15.399Z,2.17
2024-05-09T13:39:21.892Z,2.30
2024-05-09T13:41:27.318Z,1.80
2024-05-09T13:43:29.732Z,2.10
2024-05-09T13:45:34.766Z,2.13
2024-05-09T13:47:36.776Z,2.23
2024-05-09T13:49:44.120Z,2.30
2024-05-09T13:51:46.115Z,2.10
2024-05-09T13:53:54.750Z,2.70
2024-05-09T13:55:58.930Z,2.47
2024-05-09T13:58:04.224Z,2.40
2024-05-09T14:00:15.072Z,3.07
2024-05-09T14:02:28.035Z,2.67
2024-05-09T14:04:30.407Z,2.50
2024-05-09T14:06:44.128Z,2.47
2024-05-09T14:08:47.428Z,2.60
2024-05-09T14:10:52.810Z,2.47
2024-05-09T14:12:55.133Z,2.73
2024-05-09T14:14:59.778Z,2.50
2024-05-09T14:17:03.203Z,2.60
2024-05-09T14:19:08.536Z,2.80
2024-05-09T14:21:11.329Z,3.43
2024-05-09T14:23:20.269Z,2.20
2024-05-09T14:25:24.328Z,2.40
2024-05-09T14:27:32.234Z,2.73
2024-05-09T14:29:35.498Z,3.13
2024-05-09T14:31:40.335Z,2.80
2024-05-09T14:33:45.257Z,2.27
2024-05-09T14:35:50.631Z,2.50
2024-05-09T14:37:52.632Z,2.43
2024-05-09T14:40:00.047Z,2.33
2024-05-09T14:42:02.730Z,2.50
2024-05-09T14:44:12.700Z,2.43
2024-05-09T14:46:15.015Z,2.43
2024-05-09T14:48:20.467Z,2.40
2024-05-09T14:50:28.186Z,2.70
2024-05-09T14:52:39.915Z,2.53
2024-05-09T14:54:42.723Z,2.33
2024-05-09T14:56:51.619Z,2.40
2024-05-09T14:58:55.266Z,2.87
2024-05-09T15:01:01.091Z,2.23
2024-05-09T15:03:05.062Z,2.50
2024-05-09T15:05:11.792Z,2.33
2024-05-09T15:07:15.700Z,2.30
2024-05-09T15:09:20.379Z,2.50
2024-05-09T15:11:24.336Z,3.37
2024-05-09T15:13:31.715Z,2.57
2024-05-09T15:15:34.167Z,2.70
2024-05-09T15:17:39.413Z,3.07
2024-05-09T15:19:42.148Z,3.03
2024-05-09T15:21:44.869Z,3.07
2024-05-09T15:23:49.360Z,2.87
2024-05-09T15:25:51.698Z,2.50
2024-05-09T15:27:56.536Z,2.67
2024-05-09T15:30:05.633Z,2.60
2024-05-09T15:32:20.298Z,2.43
2024-05-09T15:34:25.182Z,2.60
2024-05-09T15:36:30.104Z,2.80
2024-05-09T15:38:33.781Z,2.80
2024-05-09T15:40:40.784Z,2.90
2024-05-09T15:42:43.774Z,3.10
2024-05-09T15:44:53.783Z,2.87
2024-05-09T15:46:58.781Z,3.30
2024-05-09T15:49:03.735Z,2.80
2024-05-09T15:51:07.400Z,3.03
2024-05-09T15:53:10.381Z,3.20
2024-05-09T15:55:17.422Z,4.20
2024-05-09T15:57:19.690Z,4.37
2024-05-09T15:59:24.210Z,2.73
2024-05-09T16:01:27.608Z,3.03
2024-05-09T16:03:35.120Z,4.17
2024-05-09T16:05:38.207Z,4.47
2024-05-09T16:07:43.472Z,2.60
2024-05-09T16:09:47.823Z,2.67
2024-05-09T16:11:52.938Z,3.43
2024-05-09T16:13:56.111Z,2.73
2024-05-09T16:16:01.996Z,4.07
2024-05-09T16:18:04.420Z,2.97
2024-05-09T16:20:14.968Z,2.60
2024-05-09T16:22:22.836Z,2.43
2024-05-09T16:24:24.691Z,2.77
2024-05-09T16:26:29.345Z,2.73
2024-05-09T16:28:31.422Z,3.20
2024-05-09T16:30:36.665Z,2.50
2024-05-09T16:32:46.180Z,2.20
2024-05-09T16:34:51.080Z,2.60
2024-05-09T16:36:55.672Z,2.17
2024-05-09T16:39:00.371Z,2.30
2024-05-09T16:41:03.279Z,2.70
2024-05-09T16:43:08.391Z,2.90
2024-05-09T16:45:12.279Z,2.40
2024-05-09T16:47:16.875Z,2.60
2024-05-09T16:49:19.019Z,2.60
2024-05-09T16:51:23.461Z,2.53
2024-05-09T16:53:28.084Z,2.23
2024-05-09T16:55:33.084Z,1.90
2024-05-09T16:57:35.119Z,2.53
2024-05-09T16:59:39.627Z,2.77
2024-05-09T17:01:41.520Z,2.23
2024-05-09T17:03:46.333Z,2.77
2024-05-09T17:05:50.402Z,2.20
2024-05-09T17:07:55.072Z,2.07
2024-05-09T17:09:59.677Z,2.07
2024-05-09T17:12:05.663Z,2.67
2024-05-09T17:14:07.500Z,2.77
2024-05-09T17:16:13.488Z,2.47
2024-05-09T17:18:15.849Z,2.00
2024-05-09T17:20:29.363Z,2.20
2024-05-09T17:22:35.704Z,2.40
2024-05-09T17:24:40.450Z,2.60
2024-05-09T17:26:46.847Z,2.43
2024-05-09T17:28:51.377Z,2.47
2024-05-09T17:30:55.625Z,2.33
2024-05-09T17:33:00.670Z,2.20
2024-05-09T17:35:05.568Z,2.90
2024-05-09T17:37:10.226Z,2.20
2024-05-09T17:39:12.717Z,2.33
2024-05-09T17:41:14.814Z,2.60
2024-05-09T17:43:22.436Z,2.53
2024-05-09T17:45:24.559Z,3.20
2024-05-09T17:47:29.293Z,2.47
2024-05-09T17:49:31.308Z,3.00
2024-05-09T17:51:35.947Z,3.00
2024-05-09T17:53:39.982Z,2.97
2024-05-09T17:55:44.908Z,2.33
2024-05-09T17:57:46.806Z,2.90
2024-05-09T17:59:54.011Z,2.77
2024-05-09T18:01:55.960Z,2.73
2024-05-09T18:04:00.728Z,2.20
2024-05-09T18:06:02.695Z,2.50
2024-05-09T18:08:08.359Z,2.37
2024-05-09T18:10:16.032Z,2.70
2024-05-09T18:12:26.788Z,3.20
2024-05-09T18:14:29.298Z,2.80
2024-05-09T18:16:36.640Z,2.57
2024-05-09T18:18:38.629Z,2.70
2024-05-09T18:20:45.668Z,3.10
2024-05-09T18:22:48.192Z,2.27
2024-05-09T18:24:53.312Z,2.60
2024-05-09T18:26:55.301Z,2.60
2024-05-09T18:28:59.790Z,2.77
2024-05-09T18:31:01.656Z,2.57
2024-05-09T18:33:09.794Z,3.00
2024-05-09T18:35:12.214Z,2.90
2024-05-09T18:37:16.927Z,3.03
2024-05-09T18:39:19.162Z,3.10
2024-05-09T18:41:23.542Z,3.30
2024-05-09T18:43:31.148Z,3.60
2024-05-09T18:45:38.124Z,3.20
2024-05-09T18:47:43.389Z,3.43
2024-05-09T18:49:47.858Z,2.83
2024-05-09T18:51:52.653Z,3.10
2024-05-09T18:53:55.205Z,3.70
2024-05-09T18:55:59.662Z,3.40
2024-05-09T18:58:01.605Z,3.77
2024-05-09T19:00:08.725Z,3.70
2024-05-09T19:02:13.025Z,3.03
2024-05-09T19:04:18.983Z,3.50
2024-05-09T19:06:24.846Z,4.17
2024-05-09T19:08:29.775Z,3.20
2024-05-09T19:10:34.666Z,3.20
2024-05-09T19:12:41.419Z,3.10
2024-05-09T19:14:43.354Z,3.07
2024-05-09T19:16:47.849Z,3.20
2024-05-09T19:18:51.349Z,4.13
2024-05-09T19:20:58.267Z,4.87
2024-05-09T19:23:02.894Z,4.47
2024-05-09T19:25:08.234Z,3.90
2024-05-09T19:27:10.458Z,4.00
2024-05-09T19:29:14.906Z,4.70
2024-05-09T19:31:16.786Z,3.57
2024-05-09T19:33:21.228Z,3.73
2024-05-09T19:35:23.102Z,4.13
2024-05-09T19:37:28.740Z,3.70
2024-05-09T19:39:33.217Z,4.30
2024-05-09T19:41:37.935Z,3.90
2024-05-09T19:43:39.932Z,4.03
2024-05-09T19:45:44.785Z,4.13
2024-05-09T19:47:47.040Z,3.73
2024-05-09T19:49:51.574Z,3.57
2024-05-09T19:51:53.493Z,3.53
2024-05-09T19:53:55.330Z,3.63
2024-05-09T19:56:02.452Z,5.43
2024-05-09T19:58:06.973Z,4.77
2024-05-09T20:00:21.484Z,3.57
2024-05-09T20:02:24.334Z,4.13
2024-05-09T20:04:29.282Z,4.80
2024-05-09T20:06:31.385Z,4.60
2024-05-09T20:08:35.866Z,6.20
2024-05-09T20:10:38.059Z,5.37
2024-05-09T20:12:45.254Z,5.37
2024-05-09T20:14:47.116Z,5.07
2024-05-09T20:16:52.033Z,5.20
2024-05-09T20:18:54.093Z,4.80
2024-05-09T20:21:00.066Z,4.10
2024-05-09T20:23:01.935Z,4.20
2024-05-09T20:25:07.138Z,3.90
2024-05-09T20:27:08.984Z,4.33
2024-05-09T20:29:16.179Z,3.70
2024-05-09T20:31:20.607Z,4.50
2024-05-09T20:33:22.560Z,4.20
2024-05-09T20:35:27.335Z,4.63
2024-05-09T20:37:29.250Z,4.50
2024-05-09T20:39:33.662Z,4.40
2024-05-09T20:41:41.150Z,4.10
2024-05-09T20:43:45.922Z,5.20
2024-05-09T20:45:51.819Z,4.60
2024-05-09T20:47:57.633Z,4.70
2024-05-09T20:49:59.815Z,4.40
2024-05-09T20:52:04.614Z,4.77
2024-05-09T20:54:06.457Z,5.00
2024-05-09T20:56:11.069Z,5.07
2024-05-09T20:58:13.430Z,4.23
2024-05-09T21:00:19.429Z,4.90
2024-05-09T21:02:30.810Z,4.60
2024-05-09T21:04:35.977Z,5.30
2024-05-09T21:06:37.937Z,4.47
2024-05-09T21:08:42.382Z,5.37
2024-05-09T21:10:44.645Z,5.10
2024-05-09T21:12:46.548Z,5.67
2024-05-09T21:14:51.003Z,4.70
2024-05-09T21:16:53.193Z,4.80
2024-05-09T21:19:00.434Z,5.07
2024-05-09T21:21:02.279Z,5.13
2024-05-09T21:23:07.204Z,5.00
2024-05-09T21:25:09.149Z,5.37
2024-05-09T21:27:13.935Z,5.50
2024-05-09T21:29:16.040Z,5.83
2024-05-09T21:31:20.481Z,5.87
2024-05-09T21:33:22.383Z,5.50
2024-05-09T21:35:32.218Z,5.90
2024-05-09T21:37:34.113Z,5.47
2024-05-09T21:39:39.260Z,5.60
2024-05-09T21:41:41.086Z,5.37
2024-05-09T21:43:45.523Z,5.20
2024-05-09T21:45:47.462Z,5.37
2024-05-09T21:47:52.081Z,5.40
2024-05-09T21:49:54.096Z,5.90
2024-05-09T21:52:01.171Z,5.60
2024-05-09T21:54:03.001Z,5.40
2024-05-09T21:56:09.361Z,4.83
2024-05-09T21:58:11.881Z,5.30
2024-05-09T22:00:28.474Z,4.63
2024-05-09T22:02:36.996Z,5.17
2024-05-09T22:04:41.798Z,5.00
2024-05-09T22:06:43.689Z,4.33
2024-05-09T22:08:51.073Z,4.70
2024-05-09T22:10:52.957Z,6.40
2024-05-09T22:12:57.530Z,5.83
2024-05-09T22:14:59.370Z,4.73
2024-05-09T22:17:04.241Z,4.90
2024-05-09T22:19:06.327Z,4.90
2024-05-09T22:21:12.025Z,5.73
2024-05-09T22:23:14.895Z,4.90
2024-05-09T22:25:22.429Z,5.00
2024-05-09T22:27:24.672Z,5.10
2024-05-09T22:29:29.738Z,12.83
2024-05-09T22:31:31.628Z,8.37
2024-05-09T22:33:36.610Z,5.90
2024-05-09T22:35:38.727Z,6.07
2024-05-09T22:37:43.484Z,5.67
2024-05-09T22:39:45.465Z,6.50
2024-05-09T22:41:53.059Z,6.87
2024-05-09T22:43:54.869Z,5.73
2024-05-09T22:45:59.749Z,5.90
2024-05-09T22:48:01.995Z,5.97
2024-05-09T22:50:10.727Z,5.87
2024-05-09T22:52:14.868Z,5.80
2024-05-09T22:54:19.720Z,5.53
2024-05-09T22:56:26.564Z,6.00
2024-05-09T22:58:36.572Z,6.17
2024-05-09T23:00:38.664Z,6.10
2024-05-09T23:02:45.784Z,6.20
2024-05-09T23:04:48.055Z,5.23
2024-05-09T23:06:54.050Z,5.90
2024-05-09T23:08:55.840Z,5.63
2024-05-09T23:11:00.660Z,5.90
2024-05-09T23:13:03.220Z,5.30
2024-05-09T23:15:11.025Z,5.50
2024-05-09T23:17:13.187Z,5.80
2024-05-09T23:19:17.736Z,5.50
2024-05-09T23:21:19.504Z,6.77
2024-05-09T23:23:23.909Z,6.00
2024-05-09T23:25:25.777Z,6.50
2024-05-09T23:27:30.458Z,6.47
2024-05-09T23:29:32.527Z,5.47
2024-05-09T23:31:41.479Z,5.93
2024-05-09T23:33:45.796Z,5.57
2024-05-09T23:35:50.371Z,5.43
2024-05-09T23:37:52.231Z,5.53
2024-05-09T23:39:56.714Z,6.73
2024-05-09T23:41:58.504Z,6.70
2024-05-09T23:44:05.476Z,6.27
2024-05-09T23:46:07.327Z,5.80
2024-05-09T23:48:14.451Z,5.63
2024-05-09T23:50:20.854Z,7.80
2024-05-09T23:52:31.165Z,6.00
2024-05-09T23:54:33.052Z,6.87
2024-05-09T23:56:37.623Z,7.17
2024-05-09T23:58:39.411Z,7.07
